Time;durP1;ratioP1;P1;durP2;ratioP2;P2;SDS_P1;SDS_P2;PMS_P1;PMS_P2;Temp;Humidity;BMP_temperature;BMP_pressure;BME280_temperature;BME280_humidity;BME280_pressure;Samples;Min_cycle;Max_cycle;Signal;HPM_P1;HPM_P2
2023/05/30 00:00:24;;;;;;;9.25;2.60;;;14.00;92.20;;;;;;5029155;28;20065;-89
2023/05/30 00:02:49;;;;;;;11.75;2.88;;;13.90;92.20;;;;;;5026101;28;20095;-88
2023/05/30 00:05:15;;;;;;;13.50;2.72;;;14.00;92.50;;;;;;5023428;28;20053;-87
2023/05/30 00:07:41;;;;;;;9.55;2.55;;;13.90;92.50;;;;;;5017931;28;20521;-88
2023/05/30 00:10:07;;;;;;;10.48;2.67;;;13.90;92.40;;;;;;5028295;28;20089;-88
2023/05/30 00:12:33;;;;;;;8.05;2.20;;;13.90;92.10;;;;;;5017760;28;20076;-87
2023/05/30 00:14:59;;;;;;;11.07;2.60;;;13.90;92.20;;;;;;5026185;28;20586;-88
2023/05/30 00:17:25;;;;;;;10.95;2.78;;;13.90;92.20;;;;;;5018268;28;20037;-89
2023/05/30 00:19:54;;;;;;;10.32;2.70;;;13.90;92.10;;;;;;5023598;28;20042;-88
2023/05/30 00:22:22;;;;;;;10.77;2.85;;;13.90;92.00;;;;;;5026919;28;20128;-88
2023/05/30 00:24:49;;;;;;;13.18;2.83;;;13.80;92.20;;;;;;5031330;28;20037;-88
2023/05/30 00:27:15;;;;;;;11.73;2.92;;;13.80;92.10;;;;;;5033171;28;20051;-89
2023/05/30 00:29:41;;;;;;;10.38;2.45;;;13.80;92.10;;;;;;5031472;28;20060;-88
2023/05/30 00:32:06;;;;;;;10.60;2.40;;;13.80;92.20;;;;;;5021760;28;20037;-90
2023/05/30 00:34:32;;;;;;;10.63;2.90;;;13.80;91.90;;;;;;5018460;28;20042;-88
2023/05/30 00:36:58;;;;;;;12.43;2.75;;;13.70;92.30;;;;;;5017614;28;20043;-87
2023/05/30 00:39:23;;;;;;;10.15;2.70;;;13.70;92.20;;;;;;5031143;28;20053;-87
2023/05/30 00:41:49;;;;;;;12.18;2.85;;;13.70;92.00;;;;;;5019134;28;20386;-89
2023/05/30 00:44:15;;;;;;;8.95;2.70;;;13.70;92.10;;;;;;5016641;28;20038;-89
2023/05/30 00:46:41;;;;;;;15.52;3.17;;;13.60;92.50;;;;;;5030106;28;20398;-88
2023/05/30 00:49:06;;;;;;;10.63;2.72;;;13.60;92.00;;;;;;5024256;28;20053;-88
2023/05/30 00:51:33;;;;;;;10.15;3.03;;;13.60;92.20;;;;;;5018648;28;20100;-88
2023/05/30 00:53:59;;;;;;;11.00;3.03;;;13.60;92.40;;;;;;5028215;28;20042;-88
2023/05/30 00:56:26;;;;;;;8.38;2.60;;;13.60;92.60;;;;;;5025183;28;20042;-88
2023/05/30 00:58:52;;;;;;;9.57;3.00;;;13.60;92.40;;;;;;5027431;28;20050;-87
2023/05/30 01:01:20;;;;;;;8.77;2.70;;;13.60;92.70;;;;;;5027903;28;20042;-88
2023/05/30 01:03:47;;;;;;;9.13;2.65;;;13.60;92.70;;;;;;5032086;28;20048;-89
2023/05/30 01:06:13;;;;;;;14.35;3.00;;;13.60;92.60;;;;;;5031223;28;20051;-88
2023/05/30 01:08:39;;;;;;;10.95;2.90;;;13.60;92.30;;;;;;5027737;28;20117;-88
2023/05/30 01:11:23;;;;;;;9.20;2.80;;;13.50;92.00;;;;;;5030760;28;20094;-88
2023/05/30 01:14:04;;;;;;;8.65;2.42;;;13.50;92.20;;;;;;5022419;28;20060;-88
2023/05/30 01:16:36;;;;;;;11.00;2.80;;;13.50;91.80;;;;;;5022424;28;20136;-87
2023/05/30 01:19:20;;;;;;;12.27;2.67;;;13.40;91.60;;;;;;5024129;28;20428;-88
2023/05/30 01:21:46;;;;;;;9.40;2.60;;;13.40;91.20;;;;;;5019780;28;20046;-88
2023/05/30 01:24:36;;;;;;;14.07;2.67;;;13.40;91.90;;;;;;5022268;28;20050;-87
2023/05/30 01:27:20;;;;;;;12.95;2.67;;;13.40;91.60;;;;;;5026188;28;20048;-87
2023/05/30 01:29:47;;;;;;;9.85;2.53;;;13.30;91.80;;;;;;5018495;28;20424;-87
2023/05/30 01:32:13;;;;;;;11.52;2.85;;;13.30;92.10;;;;;;5020759;28;20251;-87
2023/05/30 01:34:39;;;;;;;10.23;2.70;;;13.30;92.30;;;;;;5014813;28;20053;-88
2023/05/30 01:37:05;;;;;;;11.05;2.55;;;13.30;92.50;;;;;;5014596;28;20041;-89
2023/05/30 01:39:31;;;;;;;9.48;2.53;;;13.30;92.40;;;;;;5014136;28;20114;-88
2023/05/30 01:42:02;;;;;;;10.75;2.75;;;13.30;92.70;;;;;;5014389;28;20089;-89
2023/05/30 01:44:40;;;;;;;9.23;2.85;;;13.30;92.50;;;;;;5013386;28;20570;-88
2023/05/30 01:47:35;;;;;;;14.40;2.88;;;13.30;92.70;;;;;;5015156;28;20045;-88
2023/05/30 01:50:10;;;;;;;7.88;2.03;;;13.30;92.30;;;;;;5014287;28;20054;-87
2023/05/30 01:52:40;;;;;;;11.38;2.63;;;13.30;92.50;;;;;;5019170;28;20044;-88
2023/05/30 01:55:08;;;;;;;8.38;2.30;;;13.30;92.40;;;;;;5019018;28;20042;-87
2023/05/30 01:57:42;;;;;;;13.18;2.72;;;13.20;92.60;;;;;;5013431;28;20133;-87
2023/05/30 02:00:10;;;;;;;6.82;2.40;;;13.30;92.30;;;;;;5026529;28;20048;-88
2023/05/30 02:02:36;;;;;;;12.13;2.88;;;13.20;92.50;;;;;;5030568;28;20128;-88
2023/05/30 02:05:01;;;;;;;11.10;2.67;;;13.20;92.70;;;;;;5014496;28;20117;-88
2023/05/30 02:07:28;;;;;;;13.77;2.63;;;13.20;92.50;;;;;;5014990;28;20038;-88
2023/05/30 02:09:54;;;;;;;8.88;2.38;;;13.20;92.40;;;;;;5013414;28;20042;-88
2023/05/30 02:12:19;;;;;;;9.07;2.45;;;13.20;92.40;;;;;;5013819;28;20058;-87
2023/05/30 02:14:47;;;;;;;9.60;2.63;;;13.20;92.60;;;;;;5022423;28;20382;-88
2023/05/30 02:17:13;;;;;;;10.68;2.50;;;13.20;92.90;;;;;;5014743;28;20049;-88
2023/05/30 02:19:39;;;;;;;9.30;2.53;;;13.20;92.70;;;;;;5020922;28;20037;-87
2023/05/30 02:22:07;;;;;;;11.15;2.85;;;13.20;92.80;;;;;;5034287;28;20409;-89
2023/05/30 02:24:34;;;;;;;9.55;2.42;;;13.20;92.30;;;;;;5022759;28;20068;-86
2023/05/30 02:26:59;;;;;;;12.45;2.83;;;13.10;92.60;;;;;;5033642;28;20053;-87
2023/05/30 02:29:25;;;;;;;13.45;2.85;;;13.10;92.50;;;;;;5028501;28;20105;-88
2023/05/30 02:31:51;;;;;;;11.40;2.35;;;13.10;92.20;;;;;;5031832;28;20049;-88
2023/05/30 02:34:16;;;;;;;7.20;2.40;;;13.10;92.20;;;;;;5029335;28;20481;-88
2023/05/30 02:36:43;;;;;;;8.90;2.70;;;13.10;92.30;;;;;;5013000;28;20474;-87
2023/05/30 02:39:11;;;;;;;12.65;2.75;;;13.10;92.50;;;;;;5014314;28;20044;-88
2023/05/30 02:41:37;;;;;;;8.18;2.15;;;13.00;92.40;;;;;;5013479;28;20129;-88
2023/05/30 02:44:04;;;;;;;7.80;2.38;;;13.00;92.50;;;;;;5025842;28;20131;-88
2023/05/30 02:46:30;;;;;;;7.82;2.63;;;13.00;92.50;;;;;;5030166;28;20037;-89
2023/05/30 02:48:55;;;;;;;9.68;2.70;;;13.00;92.70;;;;;;5031169;28;20437;-89
2023/05/30 02:51:21;;;;;;;9.60;2.50;;;13.00;92.60;;;;;;5016869;28;20053;-89
2023/05/30 02:53:46;;;;;;;9.00;2.50;;;13.00;92.50;;;;;;5023163;28;20405;-88
2023/05/30 02:56:12;;;;;;;14.68;3.20;;;13.00;92.40;;;;;;5018521;28;20034;-87
2023/05/30 02:58:38;;;;;;;8.05;2.08;;;12.90;92.20;;;;;;5013957;28;20048;-89
2023/05/30 03:01:03;;;;;;;8.85;2.30;;;12.90;92.30;;;;;;5020819;28;20096;-87
2023/05/30 03:03:29;;;;;;;9.52;2.88;;;12.90;92.40;;;;;;5013335;28;20041;-88
2023/05/30 03:05:57;;;;;;;9.93;2.88;;;12.90;92.60;;;;;;5022115;28;20057;-89
2023/05/30 03:08:23;;;;;;;11.35;2.55;;;12.90;92.60;;;;;;5031451;28;20046;-88
2023/05/30 03:10:48;;;;;;;9.18;2.60;;;12.90;92.60;;;;;;5024684;28;20045;-88
2023/05/30 03:13:14;;;;;;;7.00;2.40;;;12.80;92.50;;;;;;5015035;28;20042;-89
2023/05/30 03:15:40;;;;;;;10.40;2.83;;;12.80;92.60;;;;;;5022834;28;20033;-88
2023/05/30 03:18:05;;;;;;;9.93;2.72;;;12.90;92.70;;;;;;5031641;28;20046;-89
2023/05/30 03:20:31;;;;;;;11.18;2.67;;;12.80;92.60;;;;;;5015302;28;20490;-89
2023/05/30 03:22:57;;;;;;;10.30;3.00;;;12.80;92.70;;;;;;5012968;28;20034;-88
2023/05/30 03:25:22;;;;;;;7.20;2.22;;;12.80;92.50;;;;;;5029179;28;20037;-88
2023/05/30 03:27:50;;;;;;;10.88;2.78;;;12.80;92.40;;;;;;5011712;28;20096;-89
2023/05/30 03:30:17;;;;;;;9.55;2.65;;;12.80;92.20;;;;;;5014277;28;20060;-89
2023/05/30 03:32:43;;;;;;;9.98;2.67;;;12.80;92.50;;;;;;5012532;28;20046;-89
2023/05/30 03:35:08;;;;;;;10.95;2.95;;;12.80;92.50;;;;;;5012472;28;20034;-89
2023/05/30 03:37:34;;;;;;;10.68;2.80;;;12.80;92.40;;;;;;5021821;28;20487;-89
2023/05/30 03:40:00;;;;;;;11.75;2.75;;;12.80;92.70;;;;;;5012356;28;20054;-89
2023/05/30 03:42:26;;;;;;;10.13;2.92;;;12.70;92.60;;;;;;5016763;28;20109;-89
2023/05/30 03:44:51;;;;;;;10.15;2.55;;;12.70;92.70;;;;;;5019941;28;20565;-89
2023/05/30 03:47:17;;;;;;;8.40;2.28;;;12.70;92.80;;;;;;5028709;28;20371;-88
2023/05/30 03:49:43;;;;;;;13.88;3.22;;;12.70;92.90;;;;;;5014036;28;20042;-89
2023/05/30 03:52:08;;;;;;;9.15;2.63;;;12.70;92.80;;;;;;5016515;28;20429;-89
2023/05/30 03:54:34;;;;;;;11.13;3.10;;;12.80;93.10;;;;;;5014161;28;20045;-88
2023/05/30 03:57:00;;;;;;;10.20;3.13;;;12.80;92.90;;;;;;5016170;28;20038;-88
2023/05/30 03:59:26;;;;;;;9.07;2.78;;;12.70;92.70;;;;;;5011776;28;20038;-89
2023/05/30 04:01:51;;;;;;;11.73;2.85;;;12.70;92.60;;;;;;5012277;28;20510;-88
2023/05/30 04:04:17;;;;;;;10.23;2.60;;;12.70;92.80;;;;;;5024809;28;20412;-89
2023/05/30 04:06:42;;;;;;;9.02;2.50;;;12.70;92.80;;;;;;5026594;28;20041;-88
2023/05/30 04:09:08;;;;;;;7.60;2.67;;;12.70;92.80;;;;;;5031164;28;20132;-89
2023/05/30 04:11:34;;;;;;;7.10;2.10;;;12.70;93.00;;;;;;5025982;28;20123;-89
2023/05/30 04:13:59;;;;;;;8.02;2.63;;;12.70;93.00;;;;;;5028253;28;20037;-90
2023/05/30 04:16:25;;;;;;;10.43;2.67;;;12.70;93.10;;;;;;5030190;28;20045;-87
2023/05/30 04:18:51;;;;;;;8.20;2.65;;;12.70;93.20;;;;;;5019372;28;20874;-89
2023/05/30 04:21:16;;;;;;;10.35;2.78;;;12.70;93.20;;;;;;5012941;28;20556;-89
2023/05/30 04:23:42;;;;;;;10.27;2.65;;;12.70;93.20;;;;;;5029242;28;20516;-89
2023/05/30 04:33:53;;;;;;;12.18;3.13;;;12.70;93.00;;;;;;5898671;23;20060;-88
2023/05/30 04:36:19;;;;;;;8.35;2.60;;;12.70;93.00;;;;;;5039660;28;20111;-89
2023/05/30 04:38:47;;;;;;;9.88;2.25;;;12.70;93.20;;;;;;5032504;28;20042;-87
2023/05/30 04:41:18;;;;;;;16.40;3.28;;;12.70;93.30;;;;;;5044927;28;20051;-86
2023/05/30 04:43:48;;;;;;;12.85;2.90;;;12.70;93.20;;;;;;5047842;28;20041;-88
2023/05/30 04:46:21;;;;;;;12.55;3.03;;;12.70;93.10;;;;;;5031335;28;20038;-88
2023/05/30 04:48:48;;;;;;;11.48;2.60;;;12.70;93.00;;;;;;5031617;28;20056;-89
2023/05/30 04:51:14;;;;;;;12.88;3.22;;;12.70;93.00;;;;;;5032597;28;20390;-88
2023/05/30 04:53:40;;;;;;;11.82;2.92;;;12.70;93.00;;;;;;5031793;28;20059;-88
2023/05/30 04:56:06;;;;;;;14.98;3.30;;;12.70;93.00;;;;;;5035071;28;20495;-88
2023/05/30 04:58:32;;;;;;;13.38;3.13;;;12.70;93.00;;;;;;5034861;28;20053;-89
2023/05/30 05:00:58;;;;;;;11.40;3.17;;;12.70;93.00;;;;;;5035243;28;20049;-88
2023/05/30 05:03:24;;;;;;;11.68;2.78;;;12.60;93.10;;;;;;5037249;28;20069;-87
2023/05/30 05:05:50;;;;;;;14.02;3.05;;;12.60;93.20;;;;;;5035749;28;20077;-87
2023/05/30 05:08:16;;;;;;;14.18;3.10;;;12.70;93.20;;;;;;5034462;28;20091;-87
2023/05/30 05:10:41;;;;;;;11.02;3.03;;;12.70;93.20;;;;;;5035688;28;20104;-88
2023/05/30 05:13:07;;;;;;;15.13;3.13;;;12.70;93.10;;;;;;5036708;28;20523;-87
2023/05/30 05:15:33;;;;;;;11.30;3.33;;;12.70;93.00;;;;;;5033661;28;20087;-88
2023/05/30 05:17:58;;;;;;;10.77;2.90;;;12.70;93.00;;;;;;5036651;28;20527;-87
2023/05/30 05:20:26;;;;;;;8.45;2.80;;;12.70;93.10;;;;;;5035638;28;20045;-87
2023/05/30 05:22:54;;;;;;;11.82;3.13;;;12.70;93.10;;;;;;5034231;28;20041;-87
2023/05/30 05:25:19;;;;;;;13.32;3.17;;;12.70;93.10;;;;;;5036100;28;20041;-87
2023/05/30 05:27:45;;;;;;;11.48;2.83;;;12.70;93.10;;;;;;5034987;28;20033;-87
2023/05/30 05:30:11;;;;;;;9.45;2.88;;;12.70;93.10;;;;;;5033568;28;20041;-87
2023/05/30 05:32:38;;;;;;;11.73;3.22;;;12.70;93.20;;;;;;5033689;28;20569;-88
2023/05/30 05:35:05;;;;;;;12.18;2.78;;;12.70;93.20;;;;;;5034226;28;20112;-87
2023/05/30 05:37:31;;;;;;;10.80;3.10;;;12.70;93.10;;;;;;5034619;28;20045;-87
2023/05/30 05:39:58;;;;;;;8.80;2.60;;;12.80;93.20;;;;;;5035313;28;20044;-87
2023/05/30 05:42:23;;;;;;;10.70;2.95;;;12.80;93.30;;;;;;5054901;28;20041;-88
2023/05/30 05:44:49;;;;;;;9.05;2.65;;;12.80;93.40;;;;;;5053795;28;20098;-87
2023/05/30 05:47:14;;;;;;;10.98;3.08;;;12.80;93.40;;;;;;5053979;28;20483;-87
2023/05/30 05:49:40;;;;;;;15.90;3.50;;;12.90;93.50;;;;;;5054650;28;20075;-87
2023/05/30 05:52:06;;;;;;;10.18;2.85;;;12.90;93.50;;;;;;5053259;28;20465;-87
2023/05/30 05:54:32;;;;;;;13.70;3.00;;;12.90;93.40;;;;;;5055095;28;20069;-87
2023/05/30 05:56:57;;;;;;;14.25;2.90;;;12.90;93.50;;;;;;5033570;28;20084;-87
2023/05/30 05:59:23;;;;;;;9.60;3.03;;;12.90;93.50;;;;;;5034695;28;20041;-87
2023/05/30 06:01:48;;;;;;;12.93;2.97;;;13.00;93.50;;;;;;5034748;28;20041;-87
2023/05/30 06:04:14;;;;;;;7.78;2.92;;;12.90;93.40;;;;;;5033966;28;20405;-88
2023/05/30 06:06:40;;;;;;;8.13;2.50;;;12.90;93.50;;;;;;5032455;28;20053;-87
2023/05/30 06:09:05;;;;;;;9.52;2.72;;;13.00;93.50;;;;;;5033614;28;20398;-87
2023/05/30 06:11:31;;;;;;;9.95;2.20;;;13.00;93.60;;;;;;5032796;28;20503;-87
2023/05/30 06:13:57;;;;;;;8.75;2.50;;;13.00;93.60;;;;;;5033338;28;20045;-87
2023/05/30 06:16:22;;;;;;;8.85;2.60;;;13.00;93.70;;;;;;5034619;28;20444;-87
2023/05/30 06:18:48;;;;;;;8.43;2.67;;;13.00;93.70;;;;;;5051812;28;20048;-87
2023/05/30 06:21:14;;;;;;;8.63;2.40;;;13.10;93.70;;;;;;5054525;28;20068;-87
2023/05/30 06:23:40;;;;;;;15.77;2.85;;;13.10;93.70;;;;;;5054279;28;20151;-87
2023/05/30 06:26:05;;;;;;;8.48;2.40;;;13.10;93.80;;;;;;5052350;28;20547;-87
2023/05/30 06:28:31;;;;;;;8.52;2.30;;;13.10;93.80;;;;;;5053235;28;20053;-86
2023/05/30 06:30:56;;;;;;;9.25;2.58;;;13.10;93.80;;;;;;5054061;28;20063;-87
2023/05/30 06:33:22;;;;;;;13.52;2.95;;;13.10;93.80;;;;;;5050841;28;20049;-87
2023/05/30 06:35:49;;;;;;;8.93;2.28;;;13.10;93.90;;;;;;5053304;28;20049;-86
2023/05/30 06:38:16;;;;;;;12.25;2.70;;;13.00;93.90;;;;;;5055372;28;20408;-87
2023/05/30 06:40:42;;;;;;;9.85;2.38;;;13.00;93.90;;;;;;5053024;28;20045;-86
2023/05/30 06:43:07;;;;;;;11.23;3.13;;;13.10;93.90;;;;;;5055641;28;20071;-86
2023/05/30 06:45:33;;;;;;;8.48;2.42;;;13.00;93.90;;;;;;5053629;28;20481;-87
2023/05/30 06:48:01;;;;;;;8.60;2.40;;;13.10;94.20;;;;;;5054073;28;20048;-87
2023/05/30 06:50:27;;;;;;;9.10;2.55;;;13.10;93.90;;;;;;5051619;28;20456;-87
2023/05/30 06:52:53;;;;;;;9.30;2.60;;;13.00;93.90;;;;;;5053592;28;20052;-86
2023/05/30 06:55:18;;;;;;;9.15;2.53;;;13.10;94.00;;;;;;5054012;28;20503;-87
2023/05/30 06:57:44;;;;;;;6.60;2.22;;;13.00;94.00;;;;;;5053267;28;20057;-86
2023/05/30 07:00:11;;;;;;;6.75;2.22;;;13.10;94.00;;;;;;5055233;28;20043;-86
2023/05/30 07:02:39;;;;;;;6.70;2.20;;;13.10;94.00;;;;;;5053368;28;20110;-86
2023/05/30 07:05:06;;;;;;;9.25;2.67;;;13.10;94.00;;;;;;5050564;28;20040;-87
2023/05/30 07:07:31;;;;;;;8.07;2.13;;;13.20;93.90;;;;;;5051434;28;20083;-86
2023/05/30 07:09:57;;;;;;;9.20;2.42;;;13.20;93.90;;;;;;5053044;28;20077;-86
2023/05/30 07:12:22;;;;;;;8.15;2.55;;;13.20;94.00;;;;;;5054634;28;20527;-86
2023/05/30 07:14:48;;;;;;;8.00;2.20;;;13.20;93.90;;;;;;5050253;28;20098;-87
2023/05/30 07:17:13;;;;;;;10.77;2.13;;;13.20;93.90;;;;;;5054643;28;20405;-85
2023/05/30 07:19:40;;;;;;;6.07;2.10;;;13.20;94.00;;;;;;5049239;28;20119;-86
2023/05/30 07:22:05;;;;;;;7.90;1.85;;;13.20;93.90;;;;;;5040609;28;20113;-86
2023/05/30 07:24:31;;;;;;;8.52;2.05;;;13.20;94.00;;;;;;5052745;28;20461;-87
2023/05/30 07:26:57;;;;;;;6.68;2.20;;;13.20;94.00;;;;;;5048224;28;20090;-87
2023/05/30 07:29:24;;;;;;;6.80;1.83;;;13.20;94.00;;;;;;5032726;28;20588;-87
2023/05/30 07:31:50;;;;;;;8.50;1.83;;;13.20;94.10;;;;;;5034459;28;20045;-87
2023/05/30 07:34:15;;;;;;;5.65;1.70;;;13.20;94.20;;;;;;5034651;28;20160;-86
2023/05/30 07:36:41;;;;;;;6.10;2.00;;;13.20;94.50;;;;;;5030811;28;20056;-86
2023/05/30 07:39:07;;;;;;;7.03;1.83;;;13.20;94.10;;;;;;5037202;28;20055;-85
2023/05/30 07:41:32;;;;;;;5.63;1.58;;;13.20;94.20;;;;;;5051773;28;20041;-86
2023/05/30 07:43:58;;;;;;;6.95;1.60;;;13.30;94.30;;;;;;5051216;28;20490;-85
2023/05/30 07:46:23;;;;;;;6.47;1.58;;;13.20;94.30;;;;;;5047998;28;20040;-86
2023/05/30 07:48:49;;;;;;;4.43;1.58;;;13.30;94.50;;;;;;5033492;28;20057;-87
2023/05/30 07:51:17;;;;;;;4.72;1.73;;;13.30;94.60;;;;;;5036940;28;20431;-86
2023/05/30 07:53:43;;;;;;;6.80;2.05;;;13.20;94.50;;;;;;5053131;28;20611;-86
2023/05/30 07:56:08;;;;;;;6.88;1.90;;;13.20;94.60;;;;;;5051874;28;20053;-86
2023/05/30 07:58:34;;;;;;;6.75;1.80;;;13.20;94.80;;;;;;5050500;28;20053;-87
2023/05/30 08:01:00;;;;;;;7.13;1.40;;;13.20;94.80;;;;;;5052900;28;20095;-86
2023/05/30 08:03:26;;;;;;;8.15;1.80;;;13.30;94.90;;;;;;5048939;28;20037;-87
2023/05/30 08:05:51;;;;;;;5.28;1.88;;;13.30;95.10;;;;;;5032375;28;20512;-86
2023/05/30 08:08:18;;;;;;;9.10;1.90;;;13.30;95.10;;;;;;5050601;28;20045;-86
2023/05/30 08:10:43;;;;;;;6.35;1.60;;;13.30;95.10;;;;;;5047334;28;20465;-87
2023/05/30 08:13:13;;;;;;;6.32;1.58;;;13.30;95.00;;;;;;5051202;28;20063;-86
2023/05/30 08:15:57;;;;;;;4.68;1.50;;;13.40;94.90;;;;;;5051324;28;20485;-87
2023/05/30 08:18:23;;;;;;;5.25;1.60;;;13.40;94.80;;;;;;5050712;28;20481;-86
2023/05/30 08:20:52;;;;;;;4.28;1.67;;;13.40;94.80;;;;;;5049667;28;20045;-86
2023/05/30 08:23:20;;;;;;;7.35;1.80;;;13.40;95.10;;;;;;5050368;28;20040;-86
2023/05/30 08:25:46;;;;;;;6.53;1.73;;;13.40;94.80;;;;;;5050587;28;20040;-86
2023/05/30 08:28:12;;;;;;;9.57;2.22;;;13.40;94.90;;;;;;5052277;28;20032;-87
2023/05/30 08:30:40;;;;;;;6.15;1.65;;;13.40;95.00;;;;;;5054741;28;20114;-85
2023/05/30 08:33:09;;;;;;;6.15;1.70;;;13.40;95.00;;;;;;5054516;28;20048;-86
2023/05/30 08:35:35;;;;;;;5.15;1.50;;;13.40;95.00;;;;;;5054906;28;20084;-86
2023/05/30 08:38:00;;;;;;;6.07;1.65;;;13.50;95.10;;;;;;5056570;28;20099;-86
2023/05/30 08:40:26;;;;;;;5.35;1.63;;;13.50;95.00;;;;;;5053363;28;20102;-86
2023/05/30 08:42:52;;;;;;;6.05;1.55;;;13.50;95.00;;;;;;5055315;28;20053;-85
2023/05/30 08:45:19;;;;;;;7.03;1.85;;;13.50;95.00;;;;;;5055530;28;20432;-85
2023/05/30 08:47:46;;;;;;;8.35;1.50;;;13.60;94.90;;;;;;5054463;28;20053;-86
2023/05/30 08:50:13;;;;;;;6.82;1.63;;;13.60;94.90;;;;;;5056344;28;20122;-86
2023/05/30 08:52:42;;;;;;;4.53;1.42;;;13.60;94.90;;;;;;5056043;28;20052;-84
2023/05/30 08:55:30;;;;;;;5.90;1.50;;;13.60;94.90;;;;;;5043499;28;20049;-85
2023/05/30 08:58:09;;;;;;;4.53;1.42;;;13.70;94.70;;;;;;5036067;28;20041;-87
2023/05/30 09:00:36;;;;;;;4.07;1.42;;;13.70;94.70;;;;;;5052721;28;20124;-86
2023/05/30 09:03:05;;;;;;;5.47;1.50;;;13.70;94.70;;;;;;5054641;28;20041;-86
2023/05/30 09:05:33;;;;;;;5.43;1.58;;;13.70;94.70;;;;;;5040197;28;20478;-87
2023/05/30 09:08:01;;;;;;;3.50;1.20;;;13.70;94.60;;;;;;5037490;28;20543;-86
2023/05/30 09:10:28;;;;;;;3.90;1.25;;;13.80;94.60;;;;;;5051403;28;20113;-86
2023/05/30 09:12:55;;;;;;;4.40;1.30;;;13.80;94.60;;;;;;5036956;28;20042;-86
2023/05/30 09:15:21;;;;;;;4.72;1.42;;;13.80;94.60;;;;;;5050750;28;20041;-86
2023/05/30 09:17:47;;;;;;;5.00;1.58;;;13.80;94.60;;;;;;5036761;28;20037;-88
2023/05/30 09:20:16;;;;;;;4.13;1.65;;;13.80;94.50;;;;;;5035071;28;20393;-87
2023/05/30 09:22:44;;;;;;;4.97;1.48;;;13.80;94.60;;;;;;5045923;28;20044;-86
2023/05/30 09:25:17;;;;;;;2.97;1.23;;;13.80;94.60;;;;;;5051321;28;20417;-87
2023/05/30 09:27:46;;;;;;;2.80;1.20;;;13.80;94.70;;;;;;5038142;28;20493;-87
2023/05/30 09:30:15;;;;;;;4.63;1.65;;;13.80;94.70;;;;;;5033903;28;20073;-86
2023/05/30 09:32:42;;;;;;;5.13;1.90;;;13.90;94.70;;;;;;5051249;28;20515;-87
2023/05/30 09:35:09;;;;;;;6.88;1.95;;;13.90;94.70;;;;;;5050299;28;20064;-87
2023/05/30 09:37:36;;;;;;;5.88;1.52;;;13.90;94.70;;;;;;5053113;28;20068;-87
2023/05/30 09:40:09;;;;;;;3.25;1.20;;;13.90;94.70;;;;;;5053391;28;20179;-87
2023/05/30 09:42:47;;;;;;;4.88;1.55;;;13.90;94.60;;;;;;5051443;28;20067;-87
2023/05/30 09:45:18;;;;;;;2.75;1.25;;;14.00;94.50;;;;;;5034253;28;20474;-87
2023/05/30 09:47:46;;;;;;;3.45;1.33;;;14.00;94.50;;;;;;5035115;28;20041;-87
2023/05/30 09:50:14;;;;;;;3.70;1.35;;;14.00;94.60;;;;;;5035477;28;20500;-87
2023/05/30 09:52:40;;;;;;;3.90;1.40;;;14.10;94.70;;;;;;5038804;28;20048;-86
2023/05/30 09:55:13;;;;;;;5.63;1.48;;;14.10;94.60;;;;;;5040412;28;20129;-87
2023/05/30 09:57:44;;;;;;;4.35;1.20;;;14.10;94.40;;;;;;5033777;28;20107;-86
2023/05/30 10:00:13;;;;;;;3.17;1.08;;;14.10;94.40;;;;;;5049428;28;20052;-87
2023/05/30 10:02:40;;;;;;;3.25;1.20;;;14.10;94.30;;;;;;5043023;28;20477;-86
2023/05/30 10:05:19;;;;;;;2.63;1.10;;;14.20;94.30;;;;;;5052151;28;20040;-86
2023/05/30 10:07:46;;;;;;;4.82;1.20;;;14.20;94.30;;;;;;5043540;28;20045;-87
2023/05/30 10:10:15;;;;;;;3.75;1.10;;;14.20;94.40;;;;;;5033919;28;20038;-87
2023/05/30 10:12:44;;;;;;;2.78;1.27;;;14.20;94.20;;;;;;5039347;28;20037;-86
2023/05/30 10:15:11;;;;;;;3.08;0.90;;;14.20;94.20;;;;;;5046013;28;20040;-85
2023/05/30 10:17:46;;;;;;;2.53;1.02;;;14.30;94.20;;;;;;5054528;28;20064;-87
2023/05/30 10:20:14;;;;;;;4.32;0.90;;;14.30;94.30;;;;;;5046035;28;20452;-85
2023/05/30 10:22:44;;;;;;;3.97;0.80;;;14.30;94.20;;;;;;5076652;28;20469;-87
2023/05/30 10:25:11;;;;;;;3.42;1.02;;;14.30;94.20;;;;;;5053879;28;20049;-87
2023/05/30 10:27:48;;;;;;;3.08;0.77;;;14.40;94.20;;;;;;5054463;28;20029;-87
2023/05/30 10:30:18;;;;;;;2.50;0.70;;;14.40;93.80;;;;;;5050916;28;20481;-88
2023/05/30 10:32:50;;;;;;;1.63;0.80;;;14.40;94.00;;;;;;5051956;28;20083;-85
2023/05/30 10:35:19;;;;;;;2.97;0.70;;;14.50;94.00;;;;;;5054002;28;20127;-86
2023/05/30 10:37:46;;;;;;;2.25;0.90;;;14.50;94.00;;;;;;5052642;28;20439;-85
2023/05/30 10:40:38;;;;;;;3.45;1.00;;;14.60;94.00;;;;;;5053239;28;20067;-85
2023/05/30 10:43:04;;;;;;;2.05;0.80;;;14.70;94.00;;;;;;5051647;28;20041;-85
2023/05/30 10:46:17;;;;;;;1.30;0.60;;;14.70;94.10;;;;;;5042404;28;20052;-87
2023/05/30 10:49:03;;;;;;;1.65;0.77;;;14.70;94.00;;;;;;5043513;28;20049;-85
2023/05/30 10:51:29;;;;;;;3.35;0.85;;;14.70;94.00;;;;;;5053598;28;20465;-85
2023/05/30 10:53:57;;;;;;;2.65;1.00;;;14.80;94.10;;;;;;5047699;28;20072;-85
2023/05/30 10:56:26;;;;;;;2.38;0.73;;;14.90;94.10;;;;;;5049198;28;20053;-85
2023/05/30 10:59:04;;;;;;;2.00;0.77;;;14.90;93.70;;;;;;5052634;28;20057;-86
2023/05/30 11:01:32;;;;;;;3.40;0.82;;;14.90;93.80;;;;;;5051760;28;20040;-87
2023/05/30 11:04:15;;;;;;;2.58;0.80;;;14.90;93.90;;;;;;5052545;28;20056;-86
2023/05/30 11:06:47;;;;;;;1.33;0.75;;;15.00;94.00;;;;;;5043195;28;20041;-86
2023/05/30 11:09:14;;;;;;;3.65;0.70;;;14.90;94.00;;;;;;5053540;28;20097;-86
2023/05/30 11:11:45;;;;;;;2.72;0.70;;;15.00;94.00;;;;;;5040859;28;20449;-85
2023/05/30 11:14:13;;;;;;;2.28;0.90;;;15.00;94.00;;;;;;5051689;28;20075;-84
2023/05/30 11:16:49;;;;;;;2.00;0.75;;;15.10;93.90;;;;;;5048552;28;20056;-85
2023/05/30 11:19:15;;;;;;;1.40;0.68;;;15.10;93.90;;;;;;5043470;28;20042;-87
2023/05/30 11:21:58;;;;;;;1.27;0.80;;;15.10;93.90;;;;;;5050172;28;20531;-87
2023/05/30 11:24:31;;;;;;;2.28;0.80;;;15.20;94.00;;;;;;5033299;28;20050;-86
2023/05/30 11:26:57;;;;;;;1.38;0.57;;;15.10;93.60;;;;;;5048867;28;20041;-86
2023/05/30 11:29:31;;;;;;;2.20;0.95;;;15.20;93.70;;;;;;5035802;28;20056;-85
2023/05/30 11:31:57;;;;;;;2.40;0.77;;;15.20;93.40;;;;;;5038504;28;20057;-83
2023/05/30 11:34:23;;;;;;;2.05;0.60;;;15.20;93.30;;;;;;5037422;28;20071;-84
2023/05/30 11:36:49;;;;;;;2.55;0.80;;;15.20;93.40;;;;;;5032252;28;20045;-85
2023/05/30 11:39:18;;;;;;;3.90;0.90;;;15.20;93.50;;;;;;5050772;28;20048;-86
2023/05/30 11:41:43;;;;;;;1.85;0.80;;;15.20;93.40;;;;;;5049344;28;20041;-86
2023/05/30 11:44:09;;;;;;;1.67;0.75;;;15.30;93.60;;;;;;5032920;28;20041;-85
2023/05/30 11:46:35;;;;;;;1.48;0.70;;;15.20;93.20;;;;;;5042421;28;20398;-86
2023/05/30 11:49:05;;;;;;;3.10;0.70;;;15.20;93.50;;;;;;5052185;28;20500;-86
2023/05/30 11:51:31;;;;;;;3.30;0.90;;;15.30;93.40;;;;;;5052850;28;20033;-86
2023/05/30 11:54:03;;;;;;;2.28;0.80;;;15.20;93.20;;;;;;5034046;28;20049;-87
2023/05/30 11:56:29;;;;;;;1.55;0.63;;;15.20;93.20;;;;;;5048048;28;20396;-86
2023/05/30 11:58:56;;;;;;;1.73;0.73;;;15.20;93.60;;;;;;5051682;28;20045;-87
2023/05/30 12:01:26;;;;;;;2.63;0.80;;;15.20;93.60;;;;;;5050286;28;20072;-87
2023/05/30 12:03:54;;;;;;;3.00;0.80;;;15.20;93.50;;;;;;5052950;28;20398;-88
2023/05/30 12:06:19;;;;;;;1.40;0.73;;;15.30;93.30;;;;;;5047721;28;20048;-87
2023/05/30 12:08:46;;;;;;;3.45;0.90;;;15.30;93.20;;;;;;5055643;28;20118;-86
2023/05/30 12:11:12;;;;;;;1.98;0.70;;;15.30;93.00;;;;;;5055537;28;20063;-87
2023/05/30 12:13:41;;;;;;;4.00;1.00;;;15.30;93.10;;;;;;5055646;28;20049;-87
2023/05/30 12:16:09;;;;;;;3.15;0.90;;;15.30;92.50;;;;;;5056944;28;20065;-87
2023/05/30 12:18:35;;;;;;;2.25;0.90;;;15.30;92.30;;;;;;5054258;28;20060;-87
2023/05/30 12:21:02;;;;;;;2.17;0.90;;;15.20;92.90;;;;;;5056570;28;20554;-87
2023/05/30 12:23:28;;;;;;;1.83;0.90;;;15.20;93.20;;;;;;5056845;28;20044;-87
2023/05/30 12:25:55;;;;;;;2.65;0.90;;;15.20;93.10;;;;;;5055913;28;20044;-87
2023/05/30 12:28:21;;;;;;;2.55;1.05;;;15.20;93.40;;;;;;5055529;28;20507;-87
2023/05/30 12:30:51;;;;;;;3.42;0.90;;;15.30;93.60;;;;;;5054531;28;20053;-87
2023/05/30 12:33:24;;;;;;;3.90;1.05;;;15.30;93.40;;;;;;5040382;28;20041;-86
2023/05/30 12:35:55;;;;;;;2.00;0.75;;;15.40;93.30;;;;;;5035036;28;20053;-86
2023/05/30 12:38:21;;;;;;;2.03;0.70;;;15.40;93.20;;;;;;5035775;28;20045;-86
2023/05/30 12:40:48;;;;;;;3.30;1.00;;;15.50;93.50;;;;;;5036065;28;20099;-87
2023/05/30 12:43:26;;;;;;;1.90;0.73;;;15.50;93.20;;;;;;5046260;28;20049;-86
2023/05/30 12:45:51;;;;;;;2.28;0.90;;;15.60;93.30;;;;;;5034356;28;20084;-86
2023/05/30 12:48:17;;;;;;;1.70;0.80;;;15.60;93.20;;;;;;5053047;28;20069;-86
2023/05/30 12:50:43;;;;;;;2.47;1.00;;;15.70;93.10;;;;;;5056194;28;20033;-86
2023/05/30 12:53:09;;;;;;;2.00;0.90;;;15.60;92.60;;;;;;5055546;28;20493;-87